Logo AVAMET
Benvolgut visitant, si us plau, ingressa Recuperar contrasenya
AVAMET paisatges
Union Alcoyana

Xiva Calicanto

Dades diàries. Acumulats / Últims 30 dies disponibles

Data Temperatura (°C) Humitat rel. (%) Pressió rel. (hPa) Vent (km/h) Precipitació
Mínima Mitjana Màxima Amplitud
tèrmica
Mínima Mitjana Màxima Mínima Mitjana Màxima Predom. Mitjana Ràfega
màxima
Total
(mm)
Índex-n
Mínima Mitjana Màxima Mínima Mitjana Màxima n
0 a 1
P0 max
mm 5'
Dades mensuals acumulades fins l'últim dia disponible
04/2021 9,1 10,6 12,5 13,8 11,7 18,3 26,8 17,7 18 72 96 1.008 1.017 1.026   2,4 35,4 6,0
Dades anuals acumulades fins l'últim dia disponible
2021 1,7 9,2 16,3 12,3 4,9 16,5 26,8 25,1 18 70 97 1.000 1.018 1.036   5,9 80,5 104,3
Últims 30 dies disponibles
13-04-2021 11,1     13,1     16,1 5,0 69 80 87 1.021 1.023 1.025 S 2,3 12,9 0,0
12-04-2021 11,1     13,5     16,6 5,5 51 70 91 1.019 1.022 1.025 S 3,5 24,1 0,0
11-04-2021 10,4     15,4     23,4 13,0 43 77 96 1.011 1.013 1.018 SO 5,0 33,8 0,2
10-04-2021 10,6     11,9     14,9 4,3 80 91 96 1.013 1.015 1.019 ENE 0,9 14,5 0,0
09-04-2021 9,2     10,2     11,7 2,5 77 89 96 1.019 1.021 1.023 SSE 2,3 11,3 2,8 0,47 0,50
08-04-2021 9,1     10,6     13,8 4,7 66 85 96 1.022 1.024 1.026 NE 0,9 12,9 0,4
07-04-2021 9,2     10,8     12,8 3,6 59 79 96 1.012 1.019 1.025 NNE 1,7 17,7 2,6
06-04-2021 11,8     17,3     26,8 15,0 18 58 82 1.008 1.011 1.015 SSE 5,3 35,4 0,0
05-04-2021 9,5     15,1     21,1 11,6 45 70 86 1.014 1.016 1.018 SE 1,6 19,3 0,0
04-04-2021 12,0     14,3     16,7 4,7 58 75 92 1.011 1.015 1.018 ESE 3,1 20,9 0,0
03-04-2021 12,5     17,1     23,1 10,6 38 58 81 1.009 1.011 1.013 ESE 1,3 20,9 0,0
02-04-2021 11,3     16,1     22,8 11,5 41 52 66 1.011 1.013 1.016 SSE 2,0 20,9 0,0
01-04-2021 9,4     14,1     18,6 9,2 43 56 70 1.016 1.018 1.022 ESE 1,2 17,7 0,0
31-03-2021 8,1     13,5     19,4 11,3 42 64 94 1.021 1.024 1.027 ENE 0,8 17,7 0,0
30-03-2021 10,4     14,4     19,8 9,4 38 69 91 1.026 1.028 1.030 E 1,3 17,7 0,0
29-03-2021 10,3     13,2     17,2 6,9 59 77 91 1.029 1.030 1.031 NE 2,1 22,5 0,0
28-03-2021 8,4     13,0     17,8 9,4 49 73 91 1.028 1.030 1.031 ENE 1,5 19,3 0,0
27-03-2021 10,6     12,7     15,2 4,6 70 79 87 1.027 1.028 1.029 NNE 2,6 30,6 0,0
26-03-2021 8,8     11,1     17,8 9,0 71 89 94 1.020 1.022 1.023 NNE 0,5 9,7 0,2
25-03-2021 10,7     14,3     18,8 8,1 58 76 91 1.021 1.022 1.024 NE 2,7 19,3 0,0
24-03-2021 8,1     10,6     13,3 5,2 57 78 89 1.023 1.024 1.025 SSO 1,2 9,7 0,0
23-03-2021 8,4     13,1     18,4 10,0 43 59 75 1.018 1.021 1.023 SE 2,0 16,1 0,0
22-03-2021 8,7     13,1     20,2 11,5 30 49 71 1.015 1.017 1.019 SSO 2,3 19,3 0,0
21-03-2021 6,0     11,4     18,8 12,8 29 48 73 1.015 1.018 1.021 OSO 2,8 20,9 0,0
20-03-2021 5,0     8,6     13,2 8,2 41 66 91 1.013 1.016 1.020 S 5,0 35,4 0,0
19-03-2021 5,9     8,3     12,3 6,4 49 73 94 1.009 1.013 1.016 SO 2,9 22,5 7,4 0,31 1,70
18-03-2021 6,0     9,1     13,4 7,4 47 77 93 1.015 1.018 1.021 OSO 2,6 22,5 24,9 0,19 0,90
17-03-2021 8,8     15,7     23,3 14,5 34 53 74 1.016 1.021 1.025 SSO 1,7 19,3 0,0
16-03-2021 10,1     13,7     19,5 9,4 41 63 84 1.022 1.024 1.026 S 1,4 19,3 0,0
15-03-2021 8,6     13,0     17,4 8,8 55 68 81 1.021 1.023 1.025 SSE 1,1 16,1 0,0
Últims 13 mesos disponibles
03/2021 5,0 9,1 12,4 12,5 11,3 17,1 24,0 19,0 47 72 94 1.013 1.022 1.030 SO 3,2 43,5 48,5
02/2021 5,6 10,5 15,0 13,1 13,6 17,2 21,8 16,2 53 74 91 1.002 1.018 1.034 O 6,3 72,4 21,3
01/2021 1,7 7,5 16,3 10,6 4,9 14,5 24,0 22,3 40 63 92 1.006 1.016 1.027 OSO 9,6 80,5 28,5
12/2020 4,6 8,8 15,8 12,0 11,8 16,0 21,1 16,5 41 62 81 997 1.014 1.027 OSO 9,6 64,4 6,9
11/2020 6,6 12,2 16,7 15,2 15,6 19,6 26,7 20,1 65 79 95 1.006 1.021 1.028 SSO 3,7 45,1 159,2
10/2020 10,8 14,5 18,7 18,4 19,5 23,7 31,1 20,3 40 60 87 997 1.016 1.025 OSO 6,9 97,8 6,3
09/2020 14,8 19,1 22,1 23,0 23,8 28,3 31,3 16,5 37 63 85 1.010 1.016 1.022 S 5,2 59,5 12,1
08/2020 17,2 22,4 24,7 26,6 26,2 31,9 34,8 17,6 37 67 79 1.003 1.012 1.017 ESE 3,6 30,6 0,9
07/2020 19,0 21,9 24,6 25,9 27,2 31,0 35,4 16,4 48 70 84 1.010 1.015 1.019 SE 3,6 48,3 11,5
06/2020 14,8 18,6 21,5 23,0 21,8 28,6 33,2 18,4 38 66 84 1.003 1.013 1.020 SE 4,8 53,1 35,3
05/2020 12,2 16,5 19,7 20,9 18,4 25,9 32,2 20,0 49 64 82 1.004 1.016 1.026 E 4,8 46,7 19,0
04/2020 8,1 12,2 16,8 15,4 14,6 20,1 25,1 17,0 46 76 94 1.005 1.015 1.025 SE 4,4 46,7 43,8
03/2020 5,9 10,4 16,5 13,5 9,5 17,6 25,7 19,8 41 70 95 1.005 1.016 1.026 S 7,3 98,7 64,5
Tots els anys disponibles
2020 3,4 14,6 24,7 18,3 8,4 23,2 35,4 32,0 36 68 95 997 1.017 1.032 SE 5,5 97,8 493,0
2019 3,2 14,4 26,1 18,2 11,4 23,1 40,6 37,4 32 63 95 994 1.016 1.033 ESE 5,8 78,9 365,1
2018 0,9 14,6 27,1 18,1 7,6 22,8 37,3 36,4 35 66 96 991 1.015 1.032 OSO 5,4 74,0 584,1
Temperatura (°C)
Humitat relativa (%)
Velocitat del vent i ràfega màxima (km/h)
Direcció del vent (°)
Pressió (hPa)
Precipitació (mm)
Nota sobre les dades: s'avisa a l'usuari de la provisionalitat i no oficialitat d'aquestes dades
Logo AVAMET blanc
Web allotjada a Sollutia
Llicència de Creative CommonsLa web d'AVAMET i els seus continguts estan subjectes a una llicència de
Reconeixement - No Comercial - Compartir igual
Avís legal - Política de privacitat - Política de cookies
NOVES ESTACIONS: la Serratella (Ajuntament/Soci),  Xixona - Cantal del Tormo (Soci),  Castelló de la Plana - Edifici Capitol (Soci),  Algimia de Almonacid (Soci),  Ontinyent - Ombría dels Frares (Soci), Confrides - Font de Fuster - - -